KWWD/WWD METAR and TAF weather

Enter ICAO airport designator
Station Type Date Time Source
KWWD METAR 2021/07/26 15:56 UTC NOAA

KWWD 261556Z AUTO 26006KT 10SM CLR 28/24 A2992 RMK AO2 SLP134 T02830244 $


Station Type Date Time Source
KWWD Decoded METAR 2021/07/26 15:56 UTC NOAA

Wildwood, Cape May County Airport, NJ, United States (KWWD) 39-01N 074-55W
Jul 26, 2021 - 11:56 AM EDT / 2021.07.26 1556 UTC
Wind: from the W (260 degrees) at 7 MPH (6 KT):0
Visibility: 10 mile(s):0
Sky conditions: clear
Temperature: 82.9 F (28.3 C)
Dew Point: 75.9 F (24.4 C)
Relative Humidity: 79%
Pressure (altimeter): 29.92 in. Hg (1013 hPa)
ob: KWWD 261556Z AUTO 26006KT 10SM CLR 28/24 A2992 RMK AO2 SLP134 T02830244
cycle: 16

Station Type Date Time Source
KWWD TAF UTC NOAA

Error!

Example: see airport list